Terminal Aerodrome Forecast
Issued by NWS

Home | Current Version | Previous Version | Text Only | Print | Product List | Glossary On
Versions: 1 2 3 4 5 6 7 8 9 10 11 12 13 14 15
000
FTUS42 KMLB 021131
TAFSUA
TAF
KSUA 021131Z 0212/0312 16004KT P6SM SCT070 OVC150
     FM021400 16008KT P6SM VCSH SCT030 BKN150
     FM021600 18010KT P6SM VCSH SCT040 BKN080
      TEMPO 0217/0221 3SM TSRA BKN020CB OVC040
     FM022200 19007KT P6SM VCSH SCT030 OVC060=

USA.gov is the U.S. government's official web portal to all federal, state and local government web resources and services.